sensor_id;sensor_type;location;lat;lon;timestamp;pressure;altitude;pressure_sealevel;temperature;humidity
55990;BME280;41875;55.806;38.082;2024-03-22T00:00:02;99760.56;;;-0.79;62.38
55990;BME280;41875;55.806;38.082;2024-03-22T00:03:13;99759.13;;;-0.68;61.56
55990;BME280;41875;55.806;38.082;2024-03-22T00:06:14;99750.94;;;-0.60;61.70
55990;BME280;41875;55.806;38.082;2024-03-22T00:09:18;99762.31;;;-0.79;61.86
55990;BME280;41875;55.806;38.082;2024-03-22T00:12:22;99757.06;;;-0.95;62.60
55990;BME280;41875;55.806;38.082;2024-03-22T00:15:23;99754.59;;;-1.14;63.94
55990;BME280;41875;55.806;38.082;2024-03-22T00:18:26;99765.28;;;-1.38;64.64
55990;BME280;41875;55.806;38.082;2024-03-22T00:21:28;99758.50;;;-1.41;64.33
55990;BME280;41875;55.806;38.082;2024-03-22T00:24:32;99753.44;;;-1.26;63.93
55990;BME280;41875;55.806;38.082;2024-03-22T00:27:33;99752.91;;;-1.50;64.56
55990;BME280;41875;55.806;38.082;2024-03-22T00:30:36;99739.44;;;-0.90;62.49
55990;BME280;41875;55.806;38.082;2024-03-22T00:33:37;99747.25;;;-0.90;62.30
55990;BME280;41875;55.806;38.082;2024-03-22T00:36:40;99747.41;;;-1.44;63.39
55990;BME280;41875;55.806;38.082;2024-03-22T00:39:44;99744.88;;;-1.28;63.87
55990;BME280;41875;55.806;38.082;2024-03-22T00:42:46;99742.81;;;-1.39;64.65
55990;BME280;41875;55.806;38.082;2024-03-22T00:45:49;99743.56;;;-1.19;63.26
55990;BME280;41875;55.806;38.082;2024-03-22T00:48:50;99753.34;;;-1.07;62.40
55990;BME280;41875;55.806;38.082;2024-03-22T00:51:53;99747.22;;;-1.24;63.00
55990;BME280;41875;55.806;38.082;2024-03-22T00:54:58;99748.09;;;-1.41;63.55
55990;BME280;41875;55.806;38.082;2024-03-22T00:58:00;99746.16;;;-1.19;62.50
55990;BME280;41875;55.806;38.082;2024-03-22T01:01:03;99744.34;;;-1.35;63.32
55990;BME280;41875;55.806;38.082;2024-03-22T01:04:05;99742.19;;;-1.27;62.40
55990;BME280;41875;55.806;38.082;2024-03-22T01:07:10;99741.59;;;-1.49;63.32
55990;BME280;41875;55.806;38.082;2024-03-22T01:10:14;99735.88;;;-1.39;63.43
55990;BME280;41875;55.806;38.082;2024-03-22T01:13:16;99733.66;;;-1.29;62.79
55990;BME280;41875;55.806;38.082;2024-03-22T01:16:19;99733.47;;;-1.26;62.57
55990;BME280;41875;55.806;38.082;2024-03-22T01:19:20;99730.81;;;-1.59;63.64
55990;BME280;41875;55.806;38.082;2024-03-22T01:22:24;99736.69;;;-1.73;63.98
55990;BME280;41875;55.806;38.082;2024-03-22T01:25:27;99738.59;;;-1.59;64.40
55990;BME280;41875;55.806;38.082;2024-03-22T01:28:29;99730.28;;;-1.66;64.32
55990;BME280;41875;55.806;38.082;2024-03-22T01:31:31;99732.25;;;-1.71;64.45
55990;BME280;41875;55.806;38.082;2024-03-22T01:34:33;99728.16;;;-1.75;64.57
55990;BME280;41875;55.806;38.082;2024-03-22T01:37:36;99722.38;;;-2.00;64.96
55990;BME280;41875;55.806;38.082;2024-03-22T01:40:39;99716.38;;;-2.19;65.67
55990;BME280;41875;55.806;38.082;2024-03-22T01:43:42;99712.81;;;-1.99;65.06
55990;BME280;41875;55.806;38.082;2024-03-22T01:46:44;99712.81;;;-2.36;66.97
55990;BME280;41875;55.806;38.082;2024-03-22T01:49:47;99710.81;;;-2.11;65.21
55990;BME280;41875;55.806;38.082;2024-03-22T01:52:51;99704.31;;;-2.20;66.01
55990;BME280;41875;55.806;38.082;2024-03-22T01:55:56;99688.47;;;-2.33;66.31
55990;BME280;41875;55.806;38.082;2024-03-22T01:58:57;99699.78;;;-1.97;65.99
55990;BME280;41875;55.806;38.082;2024-03-22T02:02:04;99696.25;;;-2.33;66.26
55990;BME280;41875;55.806;38.082;2024-03-22T02:05:24;99692.69;;;-2.31;66.82
55990;BME280;41875;55.806;38.082;2024-03-22T02:08:36;99687.13;;;-1.86;65.00
55990;BME280;41875;55.806;38.082;2024-03-22T02:11:39;99689.88;;;-1.54;63.68
55990;BME280;41875;55.806;38.082;2024-03-22T02:14:57;99696.88;;;-1.39;62.80
55990;BME280;41875;55.806;38.082;2024-03-22T02:18:05;99690.06;;;-1.41;63.12
55990;BME280;41875;55.806;38.082;2024-03-22T02:21:08;99692.28;;;-1.51;62.82
55990;BME280;41875;55.806;38.082;2024-03-22T02:24:11;99684.69;;;-1.72;63.74
55990;BME280;41875;55.806;38.082;2024-03-22T02:27:15;99679.78;;;-1.78;63.72
55990;BME280;41875;55.806;38.082;2024-03-22T02:30:16;99678.41;;;-1.67;63.75
55990;BME280;41875;55.806;38.082;2024-03-22T02:33:22;99678.81;;;-1.75;63.91
55990;BME280;41875;55.806;38.082;2024-03-22T02:36:23;99673.28;;;-1.87;63.70
55990;BME280;41875;55.806;38.082;2024-03-22T02:39:27;99678.91;;;-2.13;65.27
55990;BME280;41875;55.806;38.082;2024-03-22T02:42:30;99660.16;;;-2.38;66.08
55990;BME280;41875;55.806;38.082;2024-03-22T02:45:36;99671.72;;;-2.26;66.20
55990;BME280;41875;55.806;38.082;2024-03-22T02:48:40;99676.53;;;-2.18;66.35
55990;BME280;41875;55.806;38.082;2024-03-22T02:51:42;99665.88;;;-1.94;65.21
55990;BME280;41875;55.806;38.082;2024-03-22T02:54:45;99667.16;;;-2.03;65.29
55990;BME280;41875;55.806;38.082;2024-03-22T02:57:49;99663.28;;;-2.12;65.71
55990;BME280;41875;55.806;38.082;2024-03-22T03:00:51;99662.91;;;-2.60;67.27
55990;BME280;41875;55.806;38.082;2024-03-22T03:04:18;99659.41;;;-2.59;67.90
55990;BME280;41875;55.806;38.082;2024-03-22T03:07:33;99657.03;;;-2.64;67.25
55990;BME280;41875;55.806;38.082;2024-03-22T03:10:39;99645.72;;;-2.43;67.03
55990;BME280;41875;55.806;38.082;2024-03-22T03:13:47;99655.41;;;-2.47;66.94
55990;BME280;41875;55.806;38.082;2024-03-22T03:17:11;99652.47;;;-2.39;66.60
55990;BME280;41875;55.806;38.082;2024-03-22T03:20:26;99655.41;;;-2.47;67.17
55990;BME280;41875;55.806;38.082;2024-03-22T03:23:35;99651.88;;;-2.27;66.62
55990;BME280;41875;55.806;38.082;2024-03-22T03:26:38;99653.41;;;-2.42;66.38
55990;BME280;41875;55.806;38.082;2024-03-22T03:29:44;99652.38;;;-2.38;66.55
55990;BME280;41875;55.806;38.082;2024-03-22T03:32:46;99646.03;;;-2.50;66.83
55990;BME280;41875;55.806;38.082;2024-03-22T03:35:49;99644.00;;;-2.43;66.26
55990;BME280;41875;55.806;38.082;2024-03-22T03:38:50;99639.13;;;-1.96;64.89
55990;BME280;41875;55.806;38.082;2024-03-22T03:41:57;99632.56;;;-2.04;64.81
55990;BME280;41875;55.806;38.082;2024-03-22T03:45:16;99628.13;;;-2.37;65.60
55990;BME280;41875;55.806;38.082;2024-03-22T03:48:48;99629.88;;;-2.37;66.59
55990;BME280;41875;55.806;38.082;2024-03-22T03:51:50;99628.00;;;-2.16;65.89
55990;BME280;41875;55.806;38.082;2024-03-22T03:54:53;99633.56;;;-1.71;63.93
55990;BME280;41875;55.806;38.082;2024-03-22T03:57:57;99632.34;;;-1.30;62.46
55990;BME280;41875;55.806;38.082;2024-03-22T04:00:59;99626.34;;;-1.48;62.74
55990;BME280;41875;55.806;38.082;2024-03-22T04:04:07;99628.94;;;-1.15;61.90
55990;BME280;41875;55.806;38.082;2024-03-22T04:07:08;99632.97;;;-1.09;61.64
55990;BME280;41875;55.806;38.082;2024-03-22T04:10:11;99627.41;;;-1.19;62.02
55990;BME280;41875;55.806;38.082;2024-03-22T04:13:14;99630.56;;;-0.96;61.26
55990;BME280;41875;55.806;38.082;2024-03-22T04:16:17;99629.81;;;-0.66;61.42
55990;BME280;41875;55.806;38.082;2024-03-22T04:19:44;99620.50;;;-0.70;59.81
55990;BME280;41875;55.806;38.082;2024-03-22T04:23:32;99613.47;;;-1.34;62.62
55990;BME280;41875;55.806;38.082;2024-03-22T04:27:02;99615.69;;;-1.10;61.85
55990;BME280;41875;55.806;38.082;2024-03-22T04:33:55;99612.94;;;-0.75;61.49
55990;BME280;41875;55.806;38.082;2024-03-22T04:36:57;99613.13;;;-0.94;61.78
55990;BME280;41875;55.806;38.082;2024-03-22T04:40:05;99612.94;;;-0.59;60.95
55990;BME280;41875;55.806;38.082;2024-03-22T04:43:08;99608.31;;;-0.07;59.70
55990;BME280;41875;55.806;38.082;2024-03-22T04:46:30;99607.31;;;-0.51;60.90
55990;BME280;41875;55.806;38.082;2024-03-22T04:49:32;99615.75;;;-0.16;59.27
55990;BME280;41875;55.806;38.082;2024-03-22T04:52:34;99619.00;;;-0.12;59.26
55990;BME280;41875;55.806;38.082;2024-03-22T04:55:36;99622.47;;;0.03;59.37
55990;BME280;41875;55.806;38.082;2024-03-22T04:58:38;99624.47;;;0.14;59.09
55990;BME280;41875;55.806;38.082;2024-03-22T05:01:43;99626.19;;;-0.01;59.60
55990;BME280;41875;55.806;38.082;2024-03-22T05:04:46;99606.78;;;0.05;59.73
55990;BME280;41875;55.806;38.082;2024-03-22T05:07:50;99604.03;;;0.37;59.15
55990;BME280;41875;55.806;38.082;2024-03-22T05:10:53;99607.16;;;0.13;59.47
55990;BME280;41875;55.806;38.082;2024-03-22T05:13:54;99603.00;;;0.25;59.80
55990;BME280;41875;55.806;38.082;2024-03-22T05:16:58;99613.72;;;0.49;58.84
55990;BME280;41875;55.806;38.082;2024-03-22T05:20:00;99609.44;;;0.48;58.53
55990;BME280;41875;55.806;38.082;2024-03-22T05:23:05;99601.22;;;0.25;59.17
55990;BME280;41875;55.806;38.082;2024-03-22T05:26:07;99602.19;;;0.68;57.62
55990;BME280;41875;55.806;38.082;2024-03-22T05:29:09;99607.00;;;0.88;57.92
55990;BME280;41875;55.806;38.082;2024-03-22T05:32:14;99605.41;;;1.00;56.91
55990;BME280;41875;55.806;38.082;2024-03-22T05:35:16;99610.63;;;1.00;57.19
55990;BME280;41875;55.806;38.082;2024-03-22T05:38:19;99606.44;;;0.98;56.94
55990;BME280;41875;55.806;38.082;2024-03-22T05:41:22;99601.16;;;1.81;55.61
55990;BME280;41875;55.806;38.082;2024-03-22T05:44:23;99599.00;;;1.33;56.60
55990;BME280;41875;55.806;38.082;2024-03-22T05:47:27;99597.59;;;1.42;55.86
55990;BME280;41875;55.806;38.082;2024-03-22T05:50:29;99595.56;;;1.60;55.90
55990;BME280;41875;55.806;38.082;2024-03-22T05:53:32;99589.97;;;1.52;56.49
55990;BME280;41875;55.806;38.082;2024-03-22T06:00:39;99579.34;;;2.08;54.60
55990;BME280;41875;55.806;38.082;2024-03-22T06:03:43;99579.06;;;2.26;54.01
55990;BME280;41875;55.806;38.082;2024-03-22T06:06:45;99582.72;;;2.49;53.29
55990;BME280;41875;55.806;38.082;2024-03-22T06:09:47;99571.53;;;2.34;53.52
55990;BME280;41875;55.806;38.082;2024-03-22T06:12:50;99577.56;;;2.61;52.65
55990;BME280;41875;55.806;38.082;2024-03-22T06:15:52;99575.69;;;2.76;52.83
55990;BME280;41875;55.806;38.082;2024-03-22T06:18:56;99564.41;;;2.99;51.73
55990;BME280;41875;55.806;38.082;2024-03-22T06:21:58;99553.03;;;3.49;49.66
55990;BME280;41875;55.806;38.082;2024-03-22T06:25:00;99559.63;;;3.66;49.23
55990;BME280;41875;55.806;38.082;2024-03-22T06:28:05;99565.53;;;3.45;50.39
55990;BME280;41875;55.806;38.082;2024-03-22T06:31:06;99556.59;;;3.24;50.20
55990;BME280;41875;55.806;38.082;2024-03-22T06:34:11;99557.19;;;3.51;50.08
55990;BME280;41875;55.806;38.082;2024-03-22T06:37:20;99556.72;;;3.46;50.05
55990;BME280;41875;55.806;38.082;2024-03-22T06:40:44;99556.41;;;3.62;49.61
55990;BME280;41875;55.806;38.082;2024-03-22T06:43:47;99558.81;;;4.12;48.62
55990;BME280;41875;55.806;38.082;2024-03-22T06:46:48;99552.59;;;3.91;49.05
55990;BME280;41875;55.806;38.082;2024-03-22T06:49:52;99546.81;;;4.44;47.30
55990;BME280;41875;55.806;38.082;2024-03-22T06:52:54;99543.94;;;4.47;47.40
55990;BME280;41875;55.806;38.082;2024-03-22T06:55:57;99557.28;;;4.21;47.84
55990;BME280;41875;55.806;38.082;2024-03-22T06:58:59;99562.31;;;4.36;48.37
55990;BME280;41875;55.806;38.082;2024-03-22T07:02:02;99556.59;;;4.53;47.76
55990;BME280;41875;55.806;38.082;2024-03-22T07:05:06;99551.13;;;4.56;48.03
55990;BME280;41875;55.806;38.082;2024-03-22T07:08:09;99549.66;;;4.64;48.00
55990;BME280;41875;55.806;38.082;2024-03-22T07:11:12;99537.50;;;4.51;48.38
55990;BME280;41875;55.806;38.082;2024-03-22T07:14:15;99534.06;;;4.62;47.22
55990;BME280;41875;55.806;38.082;2024-03-22T07:21:24;99531.75;;;4.80;46.88
55990;BME280;41875;55.806;38.082;2024-03-22T07:24:27;99530.09;;;5.34;45.81
55990;BME280;41875;55.806;38.082;2024-03-22T07:27:29;99532.22;;;4.97;46.49
55990;BME280;41875;55.806;38.082;2024-03-22T07:30:32;99531.16;;;5.86;44.27
55990;BME280;41875;55.806;38.082;2024-03-22T07:33:33;99531.53;;;5.60;44.09
55990;BME280;41875;55.806;38.082;2024-03-22T07:36:39;99524.44;;;5.39;45.08
55990;BME280;41875;55.806;38.082;2024-03-22T07:39:40;99522.78;;;6.13;43.21
55990;BME280;41875;55.806;38.082;2024-03-22T07:42:43;99513.56;;;6.60;41.31
55990;BME280;41875;55.806;38.082;2024-03-22T07:45:45;99513.06;;;6.04;41.13
55990;BME280;41875;55.806;38.082;2024-03-22T07:48:47;99505.47;;;6.10;41.39
55990;BME280;41875;55.806;38.082;2024-03-22T07:51:50;99508.91;;;5.90;42.82
55990;BME280;41875;55.806;38.082;2024-03-22T07:54:54;99501.91;;;6.21;40.73
55990;BME280;41875;55.806;38.082;2024-03-22T07:58:12;99500.63;;;6.16;41.51
55990;BME280;41875;55.806;38.082;2024-03-22T08:01:14;99498.59;;;6.19;41.34
55990;BME280;41875;55.806;38.082;2024-03-22T08:04:19;99485.06;;;6.65;40.11
55990;BME280;41875;55.806;38.082;2024-03-22T08:07:23;99486.88;;;6.02;42.47
55990;BME280;41875;55.806;38.082;2024-03-22T08:10:25;99487.72;;;6.03;41.19
55990;BME280;41875;55.806;38.082;2024-03-22T08:18:23;99479.16;;;7.02;38.71
55990;BME280;41875;55.806;38.082;2024-03-22T08:21:26;99470.25;;;6.83;39.89
55990;BME280;41875;55.806;38.082;2024-03-22T08:24:29;99463.34;;;7.02;39.58
55990;BME280;41875;55.806;38.082;2024-03-22T08:27:31;99458.63;;;6.86;39.00
55990;BME280;41875;55.806;38.082;2024-03-22T08:30:37;99460.75;;;6.51;39.69
55990;BME280;41875;55.806;38.082;2024-03-22T08:33:39;99455.34;;;6.43;38.87
55990;BME280;41875;55.806;38.082;2024-03-22T08:36:41;99444.28;;;6.59;39.19
55990;BME280;41875;55.806;38.082;2024-03-22T08:44:15;99432.13;;;6.68;37.94
55990;BME280;41875;55.806;38.082;2024-03-22T08:47:17;99427.03;;;6.96;37.65
55990;BME280;41875;55.806;38.082;2024-03-22T08:50:19;99422.16;;;7.50;35.73
55990;BME280;41875;55.806;38.082;2024-03-22T08:53:22;99418.88;;;8.23;34.99
55990;BME280;41875;55.806;38.082;2024-03-22T08:56:23;99420.22;;;8.28;33.22
55990;BME280;41875;55.806;38.082;2024-03-22T08:59:27;99409.88;;;8.16;32.15
55990;BME280;41875;55.806;38.082;2024-03-22T09:02:29;99407.56;;;8.03;33.02
55990;BME280;41875;55.806;38.082;2024-03-22T09:05:31;99405.59;;;8.05;32.94
55990;BME280;41875;55.806;38.082;2024-03-22T09:08:34;99399.75;;;7.84;33.30
55990;BME280;41875;55.806;38.082;2024-03-22T09:11:37;99398.41;;;7.50;34.21
55990;BME280;41875;55.806;38.082;2024-03-22T09:14:40;99400.53;;;7.27;33.68
55990;BME280;41875;55.806;38.082;2024-03-22T09:17:43;99400.66;;;7.55;33.60
55990;BME280;41875;55.806;38.082;2024-03-22T09:20:45;99404.81;;;7.47;33.98
55990;BME280;41875;55.806;38.082;2024-03-22T09:23:47;99391.38;;;7.31;35.22
55990;BME280;41875;55.806;38.082;2024-03-22T09:26:50;99387.91;;;7.88;32.65
55990;BME280;41875;55.806;38.082;2024-03-22T09:29:55;99391.78;;;7.93;33.21
55990;BME280;41875;55.806;38.082;2024-03-22T09:32:58;99378.34;;;7.39;34.20
55990;BME280;41875;55.806;38.082;2024-03-22T09:35:59;99378.97;;;7.61;33.33
55990;BME280;41875;55.806;38.082;2024-03-22T09:39:02;99370.50;;;8.05;32.91
55990;BME280;41875;55.806;38.082;2024-03-22T09:42:06;99366.50;;;7.63;33.75
55990;BME280;41875;55.806;38.082;2024-03-22T09:45:11;99374.25;;;7.65;34.36
55990;BME280;41875;55.806;38.082;2024-03-22T09:48:14;99373.59;;;7.53;35.36
55990;BME280;41875;55.806;38.082;2024-03-22T09:51:16;99372.63;;;7.54;34.67
55990;BME280;41875;55.806;38.082;2024-03-22T09:54:18;99370.63;;;8.03;34.47
55990;BME280;41875;55.806;38.082;2024-03-22T09:57:21;99371.44;;;8.14;34.58
55990;BME280;41875;55.806;38.082;2024-03-22T10:00:28;99373.81;;;8.07;35.09
55990;BME280;41875;55.806;38.082;2024-03-22T10:03:32;99374.06;;;8.14;34.57
55990;BME280;41875;55.806;38.082;2024-03-22T10:06:35;99359.28;;;7.65;34.33
55990;BME280;41875;55.806;38.082;2024-03-22T10:09:37;99361.84;;;8.13;33.47
55990;BME280;41875;55.806;38.082;2024-03-22T10:12:39;99355.16;;;8.18;32.55
55990;BME280;41875;55.806;38.082;2024-03-22T10:15:42;99348.47;;;8.42;31.57
55990;BME280;41875;55.806;38.082;2024-03-22T10:18:45;99356.13;;;7.89;32.68
55990;BME280;41875;55.806;38.082;2024-03-22T10:21:59;99340.38;;;7.70;34.18
55990;BME280;41875;55.806;38.082;2024-03-22T10:25:04;99351.66;;;8.18;34.18
55990;BME280;41875;55.806;38.082;2024-03-22T10:28:07;99350.31;;;8.14;33.51
55990;BME280;41875;55.806;38.082;2024-03-22T10:31:12;99343.16;;;8.06;33.90
55990;BME280;41875;55.806;38.082;2024-03-22T10:34:15;99334.75;;;7.92;34.14
55990;BME280;41875;55.806;38.082;2024-03-22T10:37:22;99329.53;;;8.29;34.34
55990;BME280;41875;55.806;38.082;2024-03-22T10:40:33;99329.09;;;8.05;34.00
55990;BME280;41875;55.806;38.082;2024-03-22T10:43:47;99314.91;;;7.88;34.55
55990;BME280;41875;55.806;38.082;2024-03-22T10:46:54;99313.00;;;8.54;33.93
55990;BME280;41875;55.806;38.082;2024-03-22T10:50:04;99312.28;;;7.88;34.47
55990;BME280;41875;55.806;38.082;2024-03-22T10:53:11;99305.06;;;8.08;34.14
55990;BME280;41875;55.806;38.082;2024-03-22T10:56:16;99306.84;;;8.36;33.24
55990;BME280;41875;55.806;38.082;2024-03-22T10:59:19;99292.53;;;8.75;33.37
55990;BME280;41875;55.806;38.082;2024-03-22T11:02:27;99300.69;;;8.63;32.92
55990;BME280;41875;55.806;38.082;2024-03-22T11:05:30;99299.19;;;8.61;33.47
55990;BME280;41875;55.806;38.082;2024-03-22T11:08:31;99289.25;;;8.54;32.67
55990;BME280;41875;55.806;38.082;2024-03-22T11:11:36;99278.56;;;8.28;32.52
55990;BME280;41875;55.806;38.082;2024-03-22T11:14:39;99285.13;;;8.42;32.75
55990;BME280;41875;55.806;38.082;2024-03-22T11:17:42;99278.69;;;8.54;32.15
55990;BME280;41875;55.806;38.082;2024-03-22T11:20:45;99277.59;;;8.29;32.74
55990;BME280;41875;55.806;38.082;2024-03-22T11:23:49;99269.75;;;8.74;33.08
55990;BME280;41875;55.806;38.082;2024-03-22T11:26:53;99257.88;;;8.51;33.04
55990;BME280;41875;55.806;38.082;2024-03-22T11:29:55;99260.56;;;8.23;33.55
55990;BME280;41875;55.806;38.082;2024-03-22T11:33:00;99252.88;;;8.48;32.47
55990;BME280;41875;55.806;38.082;2024-03-22T11:36:04;99239.25;;;8.79;33.01
55990;BME280;41875;55.806;38.082;2024-03-22T11:39:05;99239.69;;;8.48;33.35
55990;BME280;41875;55.806;38.082;2024-03-22T11:42:09;99238.41;;;8.79;32.69
55990;BME280;41875;55.806;38.082;2024-03-22T11:45:14;99235.97;;;8.85;32.59
55990;BME280;41875;55.806;38.082;2024-03-22T11:48:18;99230.28;;;8.00;34.00
55990;BME280;41875;55.806;38.082;2024-03-22T11:51:24;99227.25;;;8.85;32.14
55990;BME280;41875;55.806;38.082;2024-03-22T11:54:25;99220.88;;;8.33;32.57
55990;BME280;41875;55.806;38.082;2024-03-22T11:57:28;99205.50;;;8.91;31.79
55990;BME280;41875;55.806;38.082;2024-03-22T12:00:30;99215.63;;;9.04;31.38
55990;BME280;41875;55.806;38.082;2024-03-22T12:03:34;99203.78;;;8.82;32.04
55990;BME280;41875;55.806;38.082;2024-03-22T12:06:36;99190.06;;;9.05;31.45
55990;BME280;41875;55.806;38.082;2024-03-22T12:09:39;99184.28;;;8.75;32.24
55990;BME280;41875;55.806;38.082;2024-03-22T12:12:40;99172.09;;;8.82;32.44
55990;BME280;41875;55.806;38.082;2024-03-22T12:15:43;99168.66;;;8.90;32.29
55990;BME280;41875;55.806;38.082;2024-03-22T12:18:48;99167.28;;;8.33;33.88
55990;BME280;41875;55.806;38.082;2024-03-22T12:21:51;99169.34;;;8.65;32.76
55990;BME280;41875;55.806;38.082;2024-03-22T12:24:52;99153.25;;;8.77;33.17
55990;BME280;41875;55.806;38.082;2024-03-22T12:27:55;99143.72;;;8.58;33.47
55990;BME280;41875;55.806;38.082;2024-03-22T12:30:57;99148.78;;;8.77;33.53
55990;BME280;41875;55.806;38.082;2024-03-22T12:34:01;99141.38;;;8.81;33.42
55990;BME280;41875;55.806;38.082;2024-03-22T12:37:03;99140.84;;;9.04;32.98
55990;BME280;41875;55.806;38.082;2024-03-22T12:40:07;99126.53;;;9.23;32.70
55990;BME280;41875;55.806;38.082;2024-03-22T12:43:10;99111.97;;;8.76;33.03
55990;BME280;41875;55.806;38.082;2024-03-22T12:46:13;99096.59;;;9.14;31.92
55990;BME280;41875;55.806;38.082;2024-03-22T12:49:19;99105.81;;;8.67;32.56
55990;BME280;41875;55.806;38.082;2024-03-22T12:52:21;99094.78;;;8.72;32.61
55990;BME280;41875;55.806;38.082;2024-03-22T12:55:24;99093.31;;;8.69;33.16
55990;BME280;41875;55.806;38.082;2024-03-22T12:58:27;99085.13;;;8.54;32.63
55990;BME280;41875;55.806;38.082;2024-03-22T13:01:29;99086.22;;;9.21;31.85
55990;BME280;41875;55.806;38.082;2024-03-22T13:04:33;99080.88;;;8.61;32.79
55990;BME280;41875;55.806;38.082;2024-03-22T13:07:37;99070.69;;;9.09;32.04
55990;BME280;41875;55.806;38.082;2024-03-22T13:10:39;99079.75;;;8.72;32.57
55990;BME280;41875;55.806;38.082;2024-03-22T13:13:44;99080.63;;;8.81;32.17
55990;BME280;41875;55.806;38.082;2024-03-22T13:16:46;99082.66;;;8.87;32.38
55990;BME280;41875;55.806;38.082;2024-03-22T13:19:50;99081.28;;;8.75;32.66
55990;BME280;41875;55.806;38.082;2024-03-22T13:22:52;99073.00;;;8.78;32.29
55990;BME280;41875;55.806;38.082;2024-03-22T13:25:54;99062.44;;;8.69;32.26
55990;BME280;41875;55.806;38.082;2024-03-22T13:28:57;99067.22;;;9.25;32.07
55990;BME280;41875;55.806;38.082;2024-03-22T13:31:59;99053.47;;;8.62;32.16
55990;BME280;41875;55.806;38.082;2024-03-22T13:35:03;99059.34;;;8.82;32.06
55990;BME280;41875;55.806;38.082;2024-03-22T13:38:06;99057.22;;;8.25;33.06
55990;BME280;41875;55.806;38.082;2024-03-22T13:41:14;99049.00;;;8.54;32.63
55990;BME280;41875;55.806;38.082;2024-03-22T13:44:16;99047.63;;;8.77;32.34
55990;BME280;41875;55.806;38.082;2024-03-22T13:47:18;99046.22;;;8.64;32.33
55990;BME280;41875;55.806;38.082;2024-03-22T13:50:22;99043.22;;;8.33;32.87
55990;BME280;41875;55.806;38.082;2024-03-22T13:53:27;99042.22;;;8.52;33.68
55990;BME280;41875;55.806;38.082;2024-03-22T13:56:48;99025.38;;;8.53;32.57
55990;BME280;41875;55.806;38.082;2024-03-22T14:00:11;99018.91;;;8.47;33.56
55990;BME280;41875;55.806;38.082;2024-03-22T14:03:15;99023.06;;;8.93;31.65
55990;BME280;41875;55.806;38.082;2024-03-22T14:06:20;99015.19;;;8.58;32.10
55990;BME280;41875;55.806;38.082;2024-03-22T14:09:28;99009.84;;;8.50;32.45
55990;BME280;41875;55.806;38.082;2024-03-22T14:12:38;99006.94;;;8.00;32.81
55990;BME280;41875;55.806;38.082;2024-03-22T14:15:41;99001.69;;;8.35;31.82
55990;BME280;41875;55.806;38.082;2024-03-22T14:18:42;98994.81;;;8.16;32.19
55990;BME280;41875;55.806;38.082;2024-03-22T14:21:46;98998.66;;;7.95;32.78
55990;BME280;41875;55.806;38.082;2024-03-22T14:24:48;99004.63;;;8.32;33.11
55990;BME280;41875;55.806;38.082;2024-03-22T14:27:51;99000.91;;;8.16;33.63
55990;BME280;41875;55.806;38.082;2024-03-22T14:30:53;98994.19;;;7.69;34.98
55990;BME280;41875;55.806;38.082;2024-03-22T14:33:55;98986.84;;;8.07;34.86
55990;BME280;41875;55.806;38.082;2024-03-22T14:36:58;98981.09;;;8.12;35.22
55990;BME280;41875;55.806;38.082;2024-03-22T14:40:01;98976.75;;;7.76;35.78
55990;BME280;41875;55.806;38.082;2024-03-22T14:43:06;98974.72;;;7.26;37.23
55990;BME280;41875;55.806;38.082;2024-03-22T14:46:09;98967.63;;;7.62;36.87
55990;BME280;41875;55.806;38.082;2024-03-22T14:49:11;98980.94;;;7.61;37.09
55990;BME280;41875;55.806;38.082;2024-03-22T14:52:15;98970.84;;;7.56;37.05
55990;BME280;41875;55.806;38.082;2024-03-22T14:55:18;98975.84;;;7.05;37.97
55990;BME280;41875;55.806;38.082;2024-03-22T14:58:22;98974.81;;;7.16;38.65
55990;BME280;41875;55.806;38.082;2024-03-22T15:01:23;98967.09;;;6.86;38.93
55990;BME280;41875;55.806;38.082;2024-03-22T15:04:27;98972.06;;;6.90;38.89
55990;BME280;41875;55.806;38.082;2024-03-22T15:07:30;98963.97;;;6.55;39.83
55990;BME280;41875;55.806;38.082;2024-03-22T15:10:33;98957.81;;;6.64;39.91
55990;BME280;41875;55.806;38.082;2024-03-22T15:13:35;98954.28;;;6.74;40.18
55990;BME280;41875;55.806;38.082;2024-03-22T15:16:38;98948.47;;;6.24;40.90
55990;BME280;41875;55.806;38.082;2024-03-22T15:19:39;98954.09;;;6.29;41.17
55990;BME280;41875;55.806;38.082;2024-03-22T15:22:45;98943.13;;;5.96;41.98
55990;BME280;41875;55.806;38.082;2024-03-22T15:25:47;98946.19;;;6.01;42.43
55990;BME280;41875;55.806;38.082;2024-03-22T15:28:50;98948.97;;;6.00;42.08
55990;BME280;41875;55.806;38.082;2024-03-22T15:31:52;98946.63;;;5.77;43.08
55990;BME280;41875;55.806;38.082;2024-03-22T15:34:54;98955.75;;;5.83;42.76
55990;BME280;41875;55.806;38.082;2024-03-22T15:37:58;98957.28;;;5.75;42.99
55990;BME280;41875;55.806;38.082;2024-03-22T15:41:01;98947.78;;;5.64;43.47
55990;BME280;41875;55.806;38.082;2024-03-22T15:44:03;98945.56;;;5.70;43.05
55990;BME280;41875;55.806;38.082;2024-03-22T15:47:06;98946.28;;;5.52;43.38
55990;BME280;41875;55.806;38.082;2024-03-22T15:50:08;98936.78;;;5.22;44.17
55990;BME280;41875;55.806;38.082;2024-03-22T15:53:12;98941.34;;;5.29;43.94
55990;BME280;41875;55.806;38.082;2024-03-22T15:56:14;98933.56;;;5.18;44.24
55990;BME280;41875;55.806;38.082;2024-03-22T15:59:20;98937.03;;;5.09;44.54
55990;BME280;41875;55.806;38.082;2024-03-22T16:02:22;98929.16;;;5.09;44.03
55990;BME280;41875;55.806;38.082;2024-03-22T16:05:28;98927.75;;;4.95;44.22
55990;BME280;41875;55.806;38.082;2024-03-22T16:08:31;98920.75;;;4.95;43.90
55990;BME280;41875;55.806;38.082;2024-03-22T16:11:34;98921.41;;;5.07;43.84
55990;BME280;41875;55.806;38.082;2024-03-22T16:14:41;98913.00;;;5.13;43.65
55990;BME280;41875;55.806;38.082;2024-03-22T16:17:45;98910.19;;;4.66;44.40
55990;BME280;41875;55.806;38.082;2024-03-22T16:20:49;98899.84;;;4.64;44.30
55990;BME280;41875;55.806;38.082;2024-03-22T16:23:53;98909.19;;;4.47;44.73
55990;BME280;41875;55.806;38.082;2024-03-22T16:26:55;98909.66;;;4.62;44.50
55990;BME280;41875;55.806;38.082;2024-03-22T16:29:57;98914.88;;;4.52;44.56
55990;BME280;41875;55.806;38.082;2024-03-22T16:32:59;98915.13;;;4.49;44.79